sensor_id;sensor_type;location;lat;lon;timestamp;P1;durP1;ratioP1;P2;durP2;ratioP2
36379;SDS011;22411;53.016;18.632;2022-10-23T00:04:00;58.03;;;29.05;;
36379;SDS011;22411;53.016;18.632;2022-10-23T00:06:31;50.67;;;29.27;;
36379;SDS011;22411;53.016;18.632;2022-10-23T00:08:58;50.67;;;28.05;;
36379;SDS011;22411;53.016;18.632;2022-10-23T00:11:25;49.05;;;26.75;;
36379;SDS011;22411;53.016;18.632;2022-10-23T00:13:53;52.55;;;27.33;;
36379;SDS011;22411;53.016;18.632;2022-10-23T00:16:21;47.90;;;28.73;;
36379;SDS011;22411;53.016;18.632;2022-10-23T00:18:47;56.20;;;28.42;;
36379;SDS011;22411;53.016;18.632;2022-10-23T00:21:13;44.28;;;26.38;;
36379;SDS011;22411;53.016;18.632;2022-10-23T00:23:41;41.22;;;24.70;;
36379;SDS011;22411;53.016;18.632;2022-10-23T00:26:07;47.88;;;25.17;;
36379;SDS011;22411;53.016;18.632;2022-10-23T00:28:36;51.03;;;25.40;;
36379;SDS011;22411;53.016;18.632;2022-10-23T00:31:09;45.33;;;24.98;;
36379;SDS011;22411;53.016;18.632;2022-10-23T00:33:36;40.78;;;23.88;;
36379;SDS011;22411;53.016;18.632;2022-10-23T00:36:03;34.65;;;22.17;;
36379;SDS011;22411;53.016;18.632;2022-10-23T00:38:33;37.28;;;21.25;;
36379;SDS011;22411;53.016;18.632;2022-10-23T00:40:59;37.75;;;22.35;;
36379;SDS011;22411;53.016;18.632;2022-10-23T00:43:26;35.33;;;20.77;;
36379;SDS011;22411;53.016;18.632;2022-10-23T00:45:54;36.83;;;22.10;;
36379;SDS011;22411;53.016;18.632;2022-10-23T00:48:21;39.40;;;20.60;;
36379;SDS011;22411;53.016;18.632;2022-10-23T00:50:48;39.72;;;22.83;;
36379;SDS011;22411;53.016;18.632;2022-10-23T00:53:16;37.67;;;21.42;;
36379;SDS011;22411;53.016;18.632;2022-10-23T00:55:45;33.88;;;20.15;;
36379;SDS011;22411;53.016;18.632;2022-10-23T00:58:14;36.28;;;21.25;;
36379;SDS011;22411;53.016;18.632;2022-10-23T01:00:43;43.60;;;21.23;;
36379;SDS011;22411;53.016;18.632;2022-10-23T01:03:14;35.33;;;20.67;;
36379;SDS011;22411;53.016;18.632;2022-10-23T01:05:48;35.92;;;22.70;;
36379;SDS011;22411;53.016;18.632;2022-10-23T01:08:22;32.85;;;20.80;;
36379;SDS011;22411;53.016;18.632;2022-10-23T01:10:51;46.38;;;23.20;;
36379;SDS011;22411;53.016;18.632;2022-10-23T01:16:04;39.28;;;23.23;;
36379;SDS011;22411;53.016;18.632;2022-10-23T01:21:19;46.10;;;24.55;;
36379;SDS011;22411;53.016;18.632;2022-10-23T01:34:21;40.47;;;22.65;;
36379;SDS011;22411;53.016;18.632;2022-10-23T01:36:53;45.53;;;22.85;;
36379;SDS011;22411;53.016;18.632;2022-10-23T01:39:28;42.25;;;22.95;;
36379;SDS011;22411;53.016;18.632;2022-10-23T01:42:10;44.47;;;23.33;;
36379;SDS011;22411;53.016;18.632;2022-10-23T01:45:02;40.63;;;22.33;;
36379;SDS011;22411;53.016;18.632;2022-10-23T01:47:31;37.88;;;21.60;;
36379;SDS011;22411;53.016;18.632;2022-10-23T01:50:00;35.72;;;20.58;;
36379;SDS011;22411;53.016;18.632;2022-10-23T01:52:29;44.90;;;21.83;;
36379;SDS011;22411;53.016;18.632;2022-10-23T01:54:57;39.42;;;22.30;;
36379;SDS011;22411;53.016;18.632;2022-10-23T01:57:25;40.97;;;21.65;;
36379;SDS011;22411;53.016;18.632;2022-10-23T01:59:59;40.85;;;22.92;;
36379;SDS011;22411;53.016;18.632;2022-10-23T02:02:30;37.58;;;22.20;;
36379;SDS011;22411;53.016;18.632;2022-10-23T02:07:46;37.25;;;21.75;;
36379;SDS011;22411;53.016;18.632;2022-10-23T02:10:12;48.85;;;21.98;;
36379;SDS011;22411;53.016;18.632;2022-10-23T02:15:27;44.65;;;23.77;;
36379;SDS011;22411;53.016;18.632;2022-10-23T02:18:04;38.88;;;22.52;;
36379;SDS011;22411;53.016;18.632;2022-10-23T02:20:54;40.60;;;22.25;;
36379;SDS011;22411;53.016;18.632;2022-10-23T02:23:40;45.55;;;22.67;;
36379;SDS011;22411;53.016;18.632;2022-10-23T02:26:11;41.58;;;23.25;;
36379;SDS011;22411;53.016;18.632;2022-10-23T02:28:44;46.00;;;24.80;;
36379;SDS011;22411;53.016;18.632;2022-10-23T02:31:17;44.17;;;23.90;;
36379;SDS011;22411;53.016;18.632;2022-10-23T02:33:46;51.20;;;24.65;;
36379;SDS011;22411;53.016;18.632;2022-10-23T02:36:13;45.15;;;24.30;;
36379;SDS011;22411;53.016;18.632;2022-10-23T02:38:41;46.60;;;24.38;;
36379;SDS011;22411;53.016;18.632;2022-10-23T02:49:43;56.63;;;28.52;;
36379;SDS011;22411;53.016;18.632;2022-10-23T02:52:22;61.50;;;29.30;;
36379;SDS011;22411;53.016;18.632;2022-10-23T02:55:36;66.18;;;29.15;;
36379;SDS011;22411;53.016;18.632;2022-10-23T02:57:52;58.03;;;28.08;;
36379;SDS011;22411;53.016;18.632;2022-10-23T03:00:20;63.95;;;29.10;;
36379;SDS011;22411;53.016;18.632;2022-10-23T03:05:24;52.95;;;27.73;;
36379;SDS011;22411;53.016;18.632;2022-10-23T03:07:55;61.63;;;28.70;;
36379;SDS011;22411;53.016;18.632;2022-10-23T03:10:21;57.47;;;27.13;;
36379;SDS011;22411;53.016;18.632;2022-10-23T03:12:47;67.57;;;31.30;;
36379;SDS011;22411;53.016;18.632;2022-10-23T03:15:14;63.03;;;31.35;;
36379;SDS011;22411;53.016;18.632;2022-10-23T03:17:41;64.18;;;32.63;;
36379;SDS011;22411;53.016;18.632;2022-10-23T03:20:07;68.22;;;32.90;;
36379;SDS011;22411;53.016;18.632;2022-10-23T03:22:34;75.68;;;35.10;;
36379;SDS011;22411;53.016;18.632;2022-10-23T03:25:00;75.88;;;34.13;;
36379;SDS011;22411;53.016;18.632;2022-10-23T03:27:26;81.63;;;30.63;;
36379;SDS011;22411;53.016;18.632;2022-10-23T03:29:52;75.30;;;32.65;;
36379;SDS011;22411;53.016;18.632;2022-10-23T03:32:17;75.88;;;29.90;;
36379;SDS011;22411;53.016;18.632;2022-10-23T03:34:43;81.00;;;33.03;;
36379;SDS011;22411;53.016;18.632;2022-10-23T03:37:09;64.97;;;30.83;;
36379;SDS011;22411;53.016;18.632;2022-10-23T03:39:35;96.22;;;34.55;;
36379;SDS011;22411;53.016;18.632;2022-10-23T03:42:01;133.48;;;36.20;;
36379;SDS011;22411;53.016;18.632;2022-10-23T03:44:27;162.48;;;39.38;;
36379;SDS011;22411;53.016;18.632;2022-10-23T03:46:55;78.03;;;33.17;;
36379;SDS011;22411;53.016;18.632;2022-10-23T03:49:22;113.13;;;35.40;;
36379;SDS011;22411;53.016;18.632;2022-10-23T03:51:47;94.57;;;32.72;;
36379;SDS011;22411;53.016;18.632;2022-10-23T03:54:21;86.05;;;31.80;;
36379;SDS011;22411;53.016;18.632;2022-10-23T03:56:48;142.75;;;37.85;;
36379;SDS011;22411;53.016;18.632;2022-10-23T03:59:15;83.70;;;31.65;;
36379;SDS011;22411;53.016;18.632;2022-10-23T04:01:41;96.15;;;33.65;;
36379;SDS011;22411;53.016;18.632;2022-10-23T04:04:07;102.95;;;33.35;;
36379;SDS011;22411;53.016;18.632;2022-10-23T04:06:33;101.78;;;32.95;;
36379;SDS011;22411;53.016;18.632;2022-10-23T04:09:00;190.60;;;40.05;;
36379;SDS011;22411;53.016;18.632;2022-10-23T04:11:26;137.60;;;35.15;;
36379;SDS011;22411;53.016;18.632;2022-10-23T04:13:52;214.23;;;42.00;;
36379;SDS011;22411;53.016;18.632;2022-10-23T04:16:17;163.13;;;39.00;;
36379;SDS011;22411;53.016;18.632;2022-10-23T04:18:44;285.23;;;47.72;;
36379;SDS011;22411;53.016;18.632;2022-10-23T04:21:10;128.57;;;36.03;;
36379;SDS011;22411;53.016;18.632;2022-10-23T04:23:36;187.40;;;41.42;;
36379;SDS011;22411;53.016;18.632;2022-10-23T04:26:02;81.25;;;31.88;;
36379;SDS011;22411;53.016;18.632;2022-10-23T04:28:28;89.40;;;32.45;;
36379;SDS011;22411;53.016;18.632;2022-10-23T04:30:54;115.25;;;34.42;;
36379;SDS011;22411;53.016;18.632;2022-10-23T04:33:20;103.97;;;34.58;;
36379;SDS011;22411;53.016;18.632;2022-10-23T04:35:46;132.10;;;37.10;;
36379;SDS011;22411;53.016;18.632;2022-10-23T04:38:12;268.40;;;41.42;;
36379;SDS011;22411;53.016;18.632;2022-10-23T04:40:39;149.60;;;36.75;;
36379;SDS011;22411;53.016;18.632;2022-10-23T04:43:05;100.50;;;34.90;;
36379;SDS011;22411;53.016;18.632;2022-10-23T04:45:30;103.47;;;32.65;;
36379;SDS011;22411;53.016;18.632;2022-10-23T04:47:56;88.85;;;33.33;;
36379;SDS011;22411;53.016;18.632;2022-10-23T04:50:22;93.15;;;33.38;;
36379;SDS011;22411;53.016;18.632;2022-10-23T04:52:52;95.72;;;34.25;;
36379;SDS011;22411;53.016;18.632;2022-10-23T04:55:19;91.97;;;34.73;;
36379;SDS011;22411;53.016;18.632;2022-10-23T04:57:45;97.28;;;34.72;;
36379;SDS011;22411;53.016;18.632;2022-10-23T05:00:12;93.70;;;31.90;;
36379;SDS011;22411;53.016;18.632;2022-10-23T05:02:39;118.50;;;35.45;;
36379;SDS011;22411;53.016;18.632;2022-10-23T05:05:06;75.45;;;30.17;;
36379;SDS011;22411;53.016;18.632;2022-10-23T05:07:33;79.60;;;28.95;;
36379;SDS011;22411;53.016;18.632;2022-10-23T05:09:59;72.70;;;27.52;;
36379;SDS011;22411;53.016;18.632;2022-10-23T05:12:25;70.50;;;28.73;;
36379;SDS011;22411;53.016;18.632;2022-10-23T05:14:52;70.90;;;28.50;;
36379;SDS011;22411;53.016;18.632;2022-10-23T05:17:19;71.97;;;27.83;;
36379;SDS011;22411;53.016;18.632;2022-10-23T05:20:06;62.28;;;26.42;;
36379;SDS011;22411;53.016;18.632;2022-10-23T05:22:37;71.25;;;28.02;;
36379;SDS011;22411;53.016;18.632;2022-10-23T05:25:05;65.80;;;28.25;;
36379;SDS011;22411;53.016;18.632;2022-10-23T05:27:31;57.28;;;25.92;;
36379;SDS011;22411;53.016;18.632;2022-10-23T05:29:57;69.88;;;27.13;;
36379;SDS011;22411;53.016;18.632;2022-10-23T05:32:24;69.13;;;27.52;;
36379;SDS011;22411;53.016;18.632;2022-10-23T05:34:53;68.78;;;27.35;;
36379;SDS011;22411;53.016;18.632;2022-10-23T05:37:20;69.70;;;27.15;;
36379;SDS011;22411;53.016;18.632;2022-10-23T05:39:46;61.95;;;27.42;;
36379;SDS011;22411;53.016;18.632;2022-10-23T05:42:12;72.28;;;28.27;;
36379;SDS011;22411;53.016;18.632;2022-10-23T05:44:37;73.72;;;30.05;;
36379;SDS011;22411;53.016;18.632;2022-10-23T05:47:04;66.45;;;27.00;;
36379;SDS011;22411;53.016;18.632;2022-10-23T05:49:29;62.67;;;28.80;;
36379;SDS011;22411;53.016;18.632;2022-10-23T05:51:55;78.28;;;30.73;;
36379;SDS011;22411;53.016;18.632;2022-10-23T05:54:21;57.67;;;25.88;;
36379;SDS011;22411;53.016;18.632;2022-10-23T05:56:47;66.55;;;28.08;;
36379;SDS011;22411;53.016;18.632;2022-10-23T05:59:13;68.88;;;29.10;;
36379;SDS011;22411;53.016;18.632;2022-10-23T06:01:38;74.88;;;30.50;;
36379;SDS011;22411;53.016;18.632;2022-10-23T06:04:05;67.47;;;28.85;;
36379;SDS011;22411;53.016;18.632;2022-10-23T06:06:31;65.00;;;26.75;;
36379;SDS011;22411;53.016;18.632;2022-10-23T06:08:56;107.25;;;32.63;;
36379;SDS011;22411;53.016;18.632;2022-10-23T06:11:22;79.43;;;29.75;;
36379;SDS011;22411;53.016;18.632;2022-10-23T06:13:48;65.82;;;28.70;;
36379;SDS011;22411;53.016;18.632;2022-10-23T06:16:17;104.05;;;33.40;;
36379;SDS011;22411;53.016;18.632;2022-10-23T06:18:44;69.00;;;29.52;;
36379;SDS011;22411;53.016;18.632;2022-10-23T06:21:11;195.15;;;37.30;;
36379;SDS011;22411;53.016;18.632;2022-10-23T06:23:38;86.70;;;30.52;;
36379;SDS011;22411;53.016;18.632;2022-10-23T06:26:06;64.47;;;29.65;;
36379;SDS011;22411;53.016;18.632;2022-10-23T06:28:33;87.32;;;31.38;;
36379;SDS011;22411;53.016;18.632;2022-10-23T06:31:02;73.53;;;30.42;;
36379;SDS011;22411;53.016;18.632;2022-10-23T06:33:32;75.13;;;31.55;;
36379;SDS011;22411;53.016;18.632;2022-10-23T06:35:58;76.72;;;33.00;;
36379;SDS011;22411;53.016;18.632;2022-10-23T06:38:24;77.25;;;31.88;;
36379;SDS011;22411;53.016;18.632;2022-10-23T06:40:54;70.68;;;31.63;;
36379;SDS011;22411;53.016;18.632;2022-10-23T06:43:20;83.80;;;33.15;;
36379;SDS011;22411;53.016;18.632;2022-10-23T06:45:47;106.60;;;35.83;;
36379;SDS011;22411;53.016;18.632;2022-10-23T06:48:13;89.75;;;37.47;;
36379;SDS011;22411;53.016;18.632;2022-10-23T06:50:40;76.95;;;34.10;;
36379;SDS011;22411;53.016;18.632;2022-10-23T06:53:06;78.75;;;35.42;;
36379;SDS011;22411;53.016;18.632;2022-10-23T06:55:32;90.05;;;37.33;;
36379;SDS011;22411;53.016;18.632;2022-10-23T06:57:58;83.40;;;36.08;;
36379;SDS011;22411;53.016;18.632;2022-10-23T07:00:24;84.55;;;36.58;;
36379;SDS011;22411;53.016;18.632;2022-10-23T07:02:51;81.03;;;36.05;;
36379;SDS011;22411;53.016;18.632;2022-10-23T07:05:17;86.18;;;36.08;;
36379;SDS011;22411;53.016;18.632;2022-10-23T07:07:44;88.97;;;36.53;;
36379;SDS011;22411;53.016;18.632;2022-10-23T07:10:10;90.03;;;38.78;;
36379;SDS011;22411;53.016;18.632;2022-10-23T07:12:36;81.30;;;37.17;;
36379;SDS011;22411;53.016;18.632;2022-10-23T07:15:02;80.05;;;36.88;;
36379;SDS011;22411;53.016;18.632;2022-10-23T07:17:28;81.07;;;36.65;;
36379;SDS011;22411;53.016;18.632;2022-10-23T07:19:54;68.65;;;34.70;;
36379;SDS011;22411;53.016;18.632;2022-10-23T07:22:20;71.32;;;33.42;;
36379;SDS011;22411;53.016;18.632;2022-10-23T07:24:46;68.60;;;33.95;;
36379;SDS011;22411;53.016;18.632;2022-10-23T07:27:12;68.32;;;34.17;;
36379;SDS011;22411;53.016;18.632;2022-10-23T07:29:38;66.78;;;34.72;;
36379;SDS011;22411;53.016;18.632;2022-10-23T07:32:04;63.55;;;33.78;;
36379;SDS011;22411;53.016;18.632;2022-10-23T07:34:30;69.15;;;36.50;;
36379;SDS011;22411;53.016;18.632;2022-10-23T07:36:56;74.40;;;37.78;;
36379;SDS011;22411;53.016;18.632;2022-10-23T07:39:22;76.38;;;38.47;;
36379;SDS011;22411;53.016;18.632;2022-10-23T07:41:49;79.55;;;38.72;;
36379;SDS011;22411;53.016;18.632;2022-10-23T07:44:14;73.18;;;38.50;;
36379;SDS011;22411;53.016;18.632;2022-10-23T07:46:40;63.20;;;35.78;;
36379;SDS011;22411;53.016;18.632;2022-10-23T07:49:08;67.63;;;37.05;;
36379;SDS011;22411;53.016;18.632;2022-10-23T07:51:35;65.72;;;36.63;;
36379;SDS011;22411;53.016;18.632;2022-10-23T07:54:09;67.55;;;39.35;;
36379;SDS011;22411;53.016;18.632;2022-10-23T07:56:36;62.30;;;35.92;;
36379;SDS011;22411;53.016;18.632;2022-10-23T07:59:02;59.03;;;35.53;;
36379;SDS011;22411;53.016;18.632;2022-10-23T08:01:30;58.45;;;33.70;;
36379;SDS011;22411;53.016;18.632;2022-10-23T08:03:58;54.45;;;33.08;;
36379;SDS011;22411;53.016;18.632;2022-10-23T08:06:25;55.03;;;32.17;;
36379;SDS011;22411;53.016;18.632;2022-10-23T08:08:51;48.53;;;30.20;;
36379;SDS011;22411;53.016;18.632;2022-10-23T08:11:21;51.15;;;31.17;;
36379;SDS011;22411;53.016;18.632;2022-10-23T08:13:54;46.47;;;29.73;;
36379;SDS011;22411;53.016;18.632;2022-10-23T08:16:21;48.00;;;30.02;;
36379;SDS011;22411;53.016;18.632;2022-10-23T08:18:48;43.90;;;29.38;;
36379;SDS011;22411;53.016;18.632;2022-10-23T08:21:15;46.75;;;28.45;;
36379;SDS011;22411;53.016;18.632;2022-10-23T08:23:42;40.90;;;27.92;;
36379;SDS011;22411;53.016;18.632;2022-10-23T08:26:09;38.60;;;25.73;;
36379;SDS011;22411;53.016;18.632;2022-10-23T08:28:35;36.75;;;22.98;;
36379;SDS011;22411;53.016;18.632;2022-10-23T08:31:06;35.55;;;23.73;;
36379;SDS011;22411;53.016;18.632;2022-10-23T08:33:36;38.40;;;22.98;;
36379;SDS011;22411;53.016;18.632;2022-10-23T08:36:03;33.00;;;21.98;;
36379;SDS011;22411;53.016;18.632;2022-10-23T08:38:30;34.15;;;24.73;;
36379;SDS011;22411;53.016;18.632;2022-10-23T08:40:58;34.65;;;24.38;;
36379;SDS011;22411;53.016;18.632;2022-10-23T08:46:14;35.13;;;23.35;;
36379;SDS011;22411;53.016;18.632;2022-10-23T08:48:45;32.28;;;23.73;;
36379;SDS011;22411;53.016;18.632;2022-10-23T08:51:28;31.90;;;23.40;;
36379;SDS011;22411;53.016;18.632;2022-10-23T08:56:50;30.75;;;21.20;;
36379;SDS011;22411;53.016;18.632;2022-10-23T08:59:28;28.63;;;21.85;;
36379;SDS011;22411;53.016;18.632;2022-10-23T09:04:41;29.75;;;21.05;;
36379;SDS011;22411;53.016;18.632;2022-10-23T09:12:23;29.85;;;22.00;;
36379;SDS011;22411;53.016;18.632;2022-10-23T09:17:38;27.58;;;20.85;;
36379;SDS011;22411;53.016;18.632;2022-10-23T09:22:57;27.10;;;20.90;;
36379;SDS011;22411;53.016;18.632;2022-10-23T09:25:29;26.10;;;20.17;;
36379;SDS011;22411;53.016;18.632;2022-10-23T09:27:59;26.88;;;23.25;;
36379;SDS011;22411;53.016;18.632;2022-10-23T09:30:27;28.02;;;21.38;;
36379;SDS011;22411;53.016;18.632;2022-10-23T09:33:16;31.70;;;26.98;;
36379;SDS011;22411;53.016;18.632;2022-10-23T09:38:55;24.38;;;17.83;;
36379;SDS011;22411;53.016;18.632;2022-10-23T09:46:58;26.83;;;17.98;;
36379;SDS011;22411;53.016;18.632;2022-10-23T09:49:27;21.38;;;16.00;;
36379;SDS011;22411;53.016;18.632;2022-10-23T09:54:25;24.00;;;18.70;;
36379;SDS011;22411;53.016;18.632;2022-10-23T09:56:52;26.60;;;19.67;;
36379;SDS011;22411;53.016;18.632;2022-10-23T09:59:22;35.50;;;26.95;;
36379;SDS011;22411;53.016;18.632;2022-10-23T10:01:55;28.10;;;21.13;;
36379;SDS011;22411;53.016;18.632;2022-10-23T10:04:36;26.23;;;20.63;;
36379;SDS011;22411;53.016;18.632;2022-10-23T10:07:11;24.02;;;19.35;;
36379;SDS011;22411;53.016;18.632;2022-10-23T10:09:44;25.48;;;21.27;;
36379;SDS011;22411;53.016;18.632;2022-10-23T10:12:18;34.45;;;25.30;;
36379;SDS011;22411;53.016;18.632;2022-10-23T10:15:22;37.55;;;29.42;;
36379;SDS011;22411;53.016;18.632;2022-10-23T10:21:15;56.15;;;46.92;;
36379;SDS011;22411;53.016;18.632;2022-10-23T10:23:52;28.02;;;22.13;;
36379;SDS011;22411;53.016;18.632;2022-10-23T10:26:38;30.27;;;22.55;;
36379;SDS011;22411;53.016;18.632;2022-10-23T10:39:43;47.80;;;40.63;;
36379;SDS011;22411;53.016;18.632;2022-10-23T10:47:36;37.25;;;27.27;;
36379;SDS011;22411;53.016;18.632;2022-10-23T10:50:16;25.60;;;20.45;;
36379;SDS011;22411;53.016;18.632;2022-10-23T10:55:47;25.30;;;21.55;;
36379;SDS011;22411;53.016;18.632;2022-10-23T10:58:23;28.60;;;21.42;;
36379;SDS011;22411;53.016;18.632;2022-10-23T11:00:58;31.80;;;22.48;;
36379;SDS011;22411;53.016;18.632;2022-10-23T11:03:37;23.63;;;21.08;;
36379;SDS011;22411;53.016;18.632;2022-10-23T11:06:21;26.65;;;21.83;;
36379;SDS011;22411;53.016;18.632;2022-10-23T11:08:51;26.67;;;20.52;;
36379;SDS011;22411;53.016;18.632;2022-10-23T11:11:38;28.88;;;22.00;;
36379;SDS011;22411;53.016;18.632;2022-10-23T11:14:15;34.22;;;29.30;;
36379;SDS011;22411;53.016;18.632;2022-10-23T11:16:47;26.92;;;21.95;;
36379;SDS011;22411;53.016;18.632;2022-10-23T11:19:29;28.70;;;22.23;;
36379;SDS011;22411;53.016;18.632;2022-10-23T11:30:28;24.80;;;20.02;;
36379;SDS011;22411;53.016;18.632;2022-10-23T11:38:30;26.05;;;20.75;;
36379;SDS011;22411;53.016;18.632;2022-10-23T11:41:32;28.80;;;23.20;;
36379;SDS011;22411;53.016;18.632;2022-10-23T11:43:59;33.03;;;27.88;;
36379;SDS011;22411;53.016;18.632;2022-10-23T11:46:34;36.63;;;22.92;;
36379;SDS011;22411;53.016;18.632;2022-10-23T11:49:03;32.08;;;23.75;;
36379;SDS011;22411;53.016;18.632;2022-10-23T11:54:19;36.67;;;24.70;;
36379;SDS011;22411;53.016;18.632;2022-10-23T11:56:50;32.97;;;26.10;;
36379;SDS011;22411;53.016;18.632;2022-10-23T11:59:31;30.67;;;23.45;;
36379;SDS011;22411;53.016;18.632;2022-10-23T12:02:20;34.85;;;26.38;;
36379;SDS011;22411;53.016;18.632;2022-10-23T12:08:06;37.28;;;28.45;;
36379;SDS011;22411;53.016;18.632;2022-10-23T12:10:44;35.20;;;26.27;;
36379;SDS011;22411;53.016;18.632;2022-10-23T12:13:29;38.42;;;27.77;;
36379;SDS011;22411;53.016;18.632;2022-10-23T12:16:02;33.10;;;26.17;;
36379;SDS011;22411;53.016;18.632;2022-10-23T12:18:30;33.83;;;24.63;;
36379;SDS011;22411;53.016;18.632;2022-10-23T12:20:57;31.33;;;25.08;;
36379;SDS011;22411;53.016;18.632;2022-10-23T12:23:44;23.45;;;18.55;;
36379;SDS011;22411;53.016;18.632;2022-10-23T12:39:53;17.23;;;13.68;;
36379;SDS011;22411;53.016;18.632;2022-10-23T12:42:21;19.05;;;13.65;;
36379;SDS011;22411;53.016;18.632;2022-10-23T12:44:59;17.55;;;13.80;;
36379;SDS011;22411;53.016;18.632;2022-10-23T12:47:26;17.80;;;14.32;;
36379;SDS011;22411;53.016;18.632;2022-10-23T12:49:53;16.90;;;13.35;;
36379;SDS011;22411;53.016;18.632;2022-10-23T12:52:19;16.08;;;13.00;;
36379;SDS011;22411;53.016;18.632;2022-10-23T12:54:46;13.55;;;12.15;;
36379;SDS011;22411;53.016;18.632;2022-10-23T12:57:22;18.88;;;12.65;;
36379;SDS011;22411;53.016;18.632;2022-10-23T13:00:02;15.65;;;12.90;;
36379;SDS011;22411;53.016;18.632;2022-10-23T13:02:34;16.67;;;13.30;;
36379;SDS011;22411;53.016;18.632;2022-10-23T13:05:02;16.60;;;11.63;;
36379;SDS011;22411;53.016;18.632;2022-10-23T13:07:32;13.13;;;11.50;;
36379;SDS011;22411;53.016;18.632;2022-10-23T13:10:02;14.45;;;11.82;;
36379;SDS011;22411;53.016;18.632;2022-10-23T13:12:31;13.13;;;11.18;;
36379;SDS011;22411;53.016;18.632;2022-10-23T13:15:11;16.27;;;13.32;;
36379;SDS011;22411;53.016;18.632;2022-10-23T13:20:26;15.73;;;11.90;;
36379;SDS011;22411;53.016;18.632;2022-10-23T13:26:00;14.30;;;11.18;;
36379;SDS011;22411;53.016;18.632;2022-10-23T13:28:30;14.05;;;11.48;;
36379;SDS011;22411;53.016;18.632;2022-10-23T13:33:37;15.75;;;11.55;;
36379;SDS011;22411;53.016;18.632;2022-10-23T13:39:13;11.50;;;10.00;;
36379;SDS011;22411;53.016;18.632;2022-10-23T13:41:35;12.35;;;10.60;;
36379;SDS011;22411;53.016;18.632;2022-10-23T13:44:09;16.63;;;11.13;;
36379;SDS011;22411;53.016;18.632;2022-10-23T13:46:38;21.67;;;16.60;;
36379;SDS011;22411;53.016;18.632;2022-10-23T13:49:04;23.88;;;21.35;;
36379;SDS011;22411;53.016;18.632;2022-10-23T13:51:33;52.88;;;42.92;;
36379;SDS011;22411;53.016;18.632;2022-10-23T13:54:05;15.30;;;12.65;;
36379;SDS011;22411;53.016;18.632;2022-10-23T13:56:38;23.15;;;20.73;;
36379;SDS011;22411;53.016;18.632;2022-10-23T13:59:03;20.38;;;17.85;;
36379;SDS011;22411;53.016;18.632;2022-10-23T14:01:33;15.80;;;12.45;;
36379;SDS011;22411;53.016;18.632;2022-10-23T14:04:02;14.35;;;11.80;;
36379;SDS011;22411;53.016;18.632;2022-10-23T14:06:30;15.60;;;14.00;;
36379;SDS011;22411;53.016;18.632;2022-10-23T14:08:57;14.50;;;11.23;;
36379;SDS011;22411;53.016;18.632;2022-10-23T14:11:23;13.02;;;10.50;;
36379;SDS011;22411;53.016;18.632;2022-10-23T14:13:49;14.23;;;10.85;;
36379;SDS011;22411;53.016;18.632;2022-10-23T14:16:18;13.35;;;9.75;;
36379;SDS011;22411;53.016;18.632;2022-10-23T14:18:45;13.48;;;11.02;;
36379;SDS011;22411;53.016;18.632;2022-10-23T14:21:12;11.40;;;9.25;;
36379;SDS011;22411;53.016;18.632;2022-10-23T14:23:39;13.02;;;9.13;;
36379;SDS011;22411;53.016;18.632;2022-10-23T14:26:09;11.70;;;9.45;;
36379;SDS011;22411;53.016;18.632;2022-10-23T14:28:39;11.98;;;8.82;;
36379;SDS011;22411;53.016;18.632;2022-10-23T14:31:09;13.48;;;9.75;;
36379;SDS011;22411;53.016;18.632;2022-10-23T14:33:39;11.57;;;9.02;;
36379;SDS011;22411;53.016;18.632;2022-10-23T14:36:08;9.65;;;8.68;;
36379;SDS011;22411;53.016;18.632;2022-10-23T14:38:38;11.70;;;9.43;;
36379;SDS011;22411;53.016;18.632;2022-10-23T14:41:17;17.50;;;9.93;;
36379;SDS011;22411;53.016;18.632;2022-10-23T14:43:47;11.40;;;9.25;;
36379;SDS011;22411;53.016;18.632;2022-10-23T14:46:23;13.52;;;8.98;;
36379;SDS011;22411;53.016;18.632;2022-10-23T14:48:54;13.32;;;8.35;;
36379;SDS011;22411;53.016;18.632;2022-10-23T14:51:29;9.55;;;8.57;;
36379;SDS011;22411;53.016;18.632;2022-10-23T14:54:00;13.15;;;9.32;;
36379;SDS011;22411;53.016;18.632;2022-10-23T14:56:35;11.85;;;10.23;;
36379;SDS011;22411;53.016;18.632;2022-10-23T14:59:07;11.75;;;9.93;;
36379;SDS011;22411;53.016;18.632;2022-10-23T15:01:36;12.77;;;10.40;;
36379;SDS011;22411;53.016;18.632;2022-10-23T15:04:05;13.75;;;10.82;;
36379;SDS011;22411;53.016;18.632;2022-10-23T15:06:36;14.15;;;11.00;;
36379;SDS011;22411;53.016;18.632;2022-10-23T15:09:05;12.55;;;10.43;;
36379;SDS011;22411;53.016;18.632;2022-10-23T15:11:35;12.35;;;10.90;;
36379;SDS011;22411;53.016;18.632;2022-10-23T15:14:01;15.52;;;9.25;;
36379;SDS011;22411;53.016;18.632;2022-10-23T15:16:27;15.13;;;11.55;;
36379;SDS011;22411;53.016;18.632;2022-10-23T15:18:56;20.15;;;11.45;;
36379;SDS011;22411;53.016;18.632;2022-10-23T15:21:35;23.63;;;12.87;;
36379;SDS011;22411;53.016;18.632;2022-10-23T15:24:03;18.88;;;12.55;;
36379;SDS011;22411;53.016;18.632;2022-10-23T15:26:30;27.70;;;15.45;;
36379;SDS011;22411;53.016;18.632;2022-10-23T15:28:57;23.15;;;14.95;;
36379;SDS011;22411;53.016;18.632;2022-10-23T15:33:54;20.88;;;15.57;;
36379;SDS011;22411;53.016;18.632;2022-10-23T15:36:23;23.73;;;15.02;;
36379;SDS011;22411;53.016;18.632;2022-10-23T15:38:49;23.77;;;17.10;;
36379;SDS011;22411;53.016;18.632;2022-10-23T15:41:18;25.35;;;15.30;;
36379;SDS011;22411;53.016;18.632;2022-10-23T15:43:48;22.20;;;16.25;;
36379;SDS011;22411;53.016;18.632;2022-10-23T15:46:14;19.17;;;15.27;;
36379;SDS011;22411;53.016;18.632;2022-10-23T15:48:39;22.05;;;16.02;;
36379;SDS011;22411;53.016;18.632;2022-10-23T15:51:07;20.45;;;16.00;;
36379;SDS011;22411;53.016;18.632;2022-10-23T15:53:33;24.10;;;16.58;;
36379;SDS011;22411;53.016;18.632;2022-10-23T15:55:59;32.63;;;16.60;;
36379;SDS011;22411;53.016;18.632;2022-10-23T15:58:25;23.10;;;15.38;;
36379;SDS011;22411;53.016;18.632;2022-10-23T16:00:51;22.63;;;16.45;;
36379;SDS011;22411;53.016;18.632;2022-10-23T16:03:17;23.27;;;16.75;;
36379;SDS011;22411;53.016;18.632;2022-10-23T16:05:43;25.38;;;16.55;;
36379;SDS011;22411;53.016;18.632;2022-10-23T16:08:09;19.38;;;16.45;;
36379;SDS011;22411;53.016;18.632;2022-10-23T16:10:38;25.50;;;17.63;;
36379;SDS011;22411;53.016;18.632;2022-10-23T16:13:06;22.48;;;18.20;;
36379;SDS011;22411;53.016;18.632;2022-10-23T16:15:35;22.00;;;17.52;;
36379;SDS011;22411;53.016;18.632;2022-10-23T16:18:02;22.88;;;16.83;;
36379;SDS011;22411;53.016;18.632;2022-10-23T16:20:29;23.40;;;19.63;;
36379;SDS011;22411;53.016;18.632;2022-10-23T16:22:55;27.27;;;20.27;;
36379;SDS011;22411;53.016;18.632;2022-10-23T16:25:21;29.77;;;23.35;;
36379;SDS011;22411;53.016;18.632;2022-10-23T16:27:47;33.30;;;28.50;;
36379;SDS011;22411;53.016;18.632;2022-10-23T16:30:13;27.55;;;23.35;;
36379;SDS011;22411;53.016;18.632;2022-10-23T16:32:42;24.77;;;20.45;;
36379;SDS011;22411;53.016;18.632;2022-10-23T16:35:12;20.27;;;17.67;;
36379;SDS011;22411;53.016;18.632;2022-10-23T16:37:43;21.80;;;19.10;;